Time;durP1;ratioP1;P1;durP2;ratioP2;P2;SDS_P1;SDS_P2;PMS_P1;PMS_P2;Temp;Humidity;BMP_temperature;BMP_pressure;BME280_temperature;BME280_humidity;BME280_pressure;Samples;Min_cycle;Max_cycle;Signal;HPM_P1;HPM_P2
2022/03/25 00:01:28;;;;;;;14.18;9.98;;;1.90;99.90;;;;;;5074913;28;20098;-59
2022/03/25 00:03:54;;;;;;;17.88;10.48;;;2.00;99.90;;;;;;5074429;28;20082;-59
2022/03/25 00:06:22;;;;;;;11.60;9.40;;;1.90;99.90;;;;;;5074753;28;20056;-59
2022/03/25 00:08:47;;;;;;;13.95;9.02;;;1.90;99.90;;;;;;5072968;28;20556;-59
2022/03/25 00:11:13;;;;;;;13.95;10.57;;;1.90;99.90;;;;;;5073573;28;20024;-59
2022/03/25 00:13:39;;;;;;;12.40;8.93;;;1.90;99.90;;;;;;5074546;28;20053;-59
2022/03/25 00:16:06;;;;;;;13.77;9.25;;;1.90;99.90;;;;;;5074648;28;20025;-59
2022/03/25 00:18:32;;;;;;;11.65;9.57;;;1.70;99.90;;;;;;5073251;28;20028;-59
2022/03/25 00:20:58;;;;;;;12.85;8.88;;;1.70;99.90;;;;;;5074430;28;20107;-59
2022/03/25 00:23:25;;;;;;;12.90;9.32;;;1.70;99.90;;;;;;5073064;28;20654;-59
2022/03/25 00:25:51;;;;;;;18.77;10.70;;;1.60;99.90;;;;;;5073686;28;20026;-59
2022/03/25 00:28:17;;;;;;;17.30;10.18;;;1.50;99.90;;;;;;5073856;28;20070;-59
2022/03/25 00:30:43;;;;;;;12.05;9.88;;;1.50;99.90;;;;;;5073476;28;20020;-59
2022/03/25 00:33:09;;;;;;;11.40;9.35;;;1.40;99.90;;;;;;5073169;28;20111;-59
2022/03/25 00:35:35;;;;;;;15.35;10.80;;;1.50;99.90;;;;;;5073882;28;20023;-59
2022/03/25 00:38:01;;;;;;;15.30;9.80;;;1.50;99.90;;;;;;5074087;28;20025;-59
2022/03/25 00:40:27;;;;;;;14.32;9.05;;;1.50;99.90;;;;;;5073548;28;20525;-59
2022/03/25 00:42:52;;;;;;;17.55;9.93;;;1.50;99.90;;;;;;5072607;28;20025;-59
2022/03/25 00:45:18;;;;;;;11.25;9.05;;;1.60;99.90;;;;;;5073208;28;20056;-59
2022/03/25 00:47:44;;;;;;;14.40;10.07;;;1.60;99.90;;;;;;5072377;28;20032;-59
2022/03/25 00:50:11;;;;;;;13.02;9.15;;;1.60;99.90;;;;;;5073698;28;20135;-59
2022/03/25 00:52:37;;;;;;;12.48;9.30;;;1.60;99.90;;;;;;5073691;28;20021;-58
2022/03/25 00:55:05;;;;;;;12.57;10.02;;;1.60;99.90;;;;;;5072151;28;20032;-59
2022/03/25 00:57:31;;;;;;;14.15;10.50;;;1.50;99.90;;;;;;5072897;28;20023;-59
2022/03/25 00:59:57;;;;;;;12.63;10.23;;;1.30;99.90;;;;;;5072233;28;20123;-59
2022/03/25 01:02:23;;;;;;;12.90;10.15;;;1.30;99.90;;;;;;5072020;28;20025;-59
2022/03/25 01:04:49;;;;;;;13.73;10.55;;;1.20;99.90;;;;;;5073163;28;20025;-59
2022/03/25 01:07:15;;;;;;;25.67;9.65;;;1.00;99.90;;;;;;5072922;28;20025;-59
2022/03/25 01:09:41;;;;;;;18.02;10.02;;;1.10;99.90;;;;;;5072566;28;20029;-59
2022/03/25 01:12:08;;;;;;;14.25;10.27;;;1.20;99.90;;;;;;5073160;28;20036;-59
2022/03/25 01:14:34;;;;;;;13.98;10.07;;;1.20;99.90;;;;;;5072548;28;20067;-59
2022/03/25 01:17:00;;;;;;;12.77;9.38;;;1.20;99.90;;;;;;5072316;28;20039;-58
2022/03/25 01:19:27;;;;;;;13.55;10.80;;;1.20;99.90;;;;;;5072972;28;20460;-59
2022/03/25 01:21:56;;;;;;;14.45;10.68;;;1.10;99.90;;;;;;5071890;28;20032;-59
2022/03/25 01:24:23;;;;;;;13.32;10.20;;;1.10;99.90;;;;;;5072583;28;20025;-59
2022/03/25 01:26:49;;;;;;;14.85;11.02;;;1.10;99.90;;;;;;5072435;28;20021;-59
2022/03/25 01:29:15;;;;;;;12.77;9.90;;;1.10;99.90;;;;;;5072885;28;20403;-59
2022/03/25 01:31:41;;;;;;;16.25;10.98;;;1.10;99.90;;;;;;5072184;28;20050;-58
2022/03/25 01:34:07;;;;;;;15.02;10.85;;;1.00;99.90;;;;;;5072294;28;20024;-59
2022/03/25 01:36:34;;;;;;;12.93;10.25;;;1.00;99.90;;;;;;5072443;28;20031;-59
2022/03/25 01:39:01;;;;;;;16.67;10.25;;;1.10;99.90;;;;;;5071610;28;20260;-59
2022/03/25 01:41:27;;;;;;;14.25;10.68;;;1.00;99.90;;;;;;5072371;28;20056;-59
2022/03/25 01:43:59;;;;;;;13.77;10.90;;;1.00;99.90;;;;;;5071919;28;20031;-59
2022/03/25 01:46:26;;;;;;;15.23;11.43;;;0.90;99.90;;;;;;5070747;28;20029;-59
2022/03/25 01:48:53;;;;;;;16.20;12.77;;;0.70;99.90;;;;;;5071261;28;20036;-59
2022/03/25 01:51:25;;;;;;;19.88;12.75;;;0.70;99.90;;;;;;5071851;28;20421;-59
2022/03/25 01:53:50;;;;;;;21.92;11.52;;;0.70;99.90;;;;;;5072208;28;20365;-59
2022/03/25 01:56:22;;;;;;;18.05;11.20;;;0.60;99.90;;;;;;5071832;28;20031;-59
2022/03/25 01:58:48;;;;;;;16.23;11.32;;;0.60;99.90;;;;;;5070547;28;20054;-59
2022/03/25 02:01:14;;;;;;;19.25;12.10;;;0.60;99.90;;;;;;5070618;28;20052;-59
2022/03/25 02:03:40;;;;;;;14.38;10.68;;;0.70;99.90;;;;;;5071356;28;20456;-59
2022/03/25 02:06:06;;;;;;;15.88;11.30;;;0.60;99.90;;;;;;5071268;28;20039;-59
2022/03/25 02:08:32;;;;;;;17.27;10.73;;;0.60;99.90;;;;;;5071585;28;20025;-57
2022/03/25 02:10:58;;;;;;;17.88;11.98;;;0.70;99.90;;;;;;5070791;28;20019;-59
2022/03/25 02:13:25;;;;;;;15.23;11.65;;;0.70;99.90;;;;;;5071212;28;20052;-59
2022/03/25 02:15:52;;;;;;;18.20;10.45;;;0.60;99.90;;;;;;5071280;28;20028;-59
2022/03/25 02:18:18;;;;;;;14.90;11.63;;;0.60;99.90;;;;;;5071847;28;20047;-58
2022/03/25 02:20:46;;;;;;;15.93;9.70;;;0.60;99.90;;;;;;5069903;28;20539;-59
2022/03/25 02:23:12;;;;;;;14.88;10.75;;;0.60;99.90;;;;;;5071659;28;20029;-59
2022/03/25 02:25:40;;;;;;;14.27;10.93;;;0.50;99.90;;;;;;5071090;28;20024;-58
2022/03/25 02:28:06;;;;;;;18.90;12.23;;;0.50;99.90;;;;;;5071716;28;20054;-59
2022/03/25 02:30:33;;;;;;;13.30;10.35;;;0.40;99.90;;;;;;5071287;28;20032;-59
2022/03/25 02:33:02;;;;;;;17.02;11.80;;;0.30;99.90;;;;;;5069138;28;20029;-59
2022/03/25 02:35:42;;;;;;;13.57;11.10;;;0.20;99.90;;;;;;5070215;28;20025;-59
2022/03/25 02:38:10;;;;;;;13.45;10.73;;;0.20;99.90;;;;;;5071126;28;20083;-58
2022/03/25 02:40:36;;;;;;;16.23;10.75;;;0.20;99.90;;;;;;5071088;28;20055;-58
2022/03/25 02:43:02;;;;;;;20.40;11.40;;;0.20;99.90;;;;;;5070891;28;20025;-58
2022/03/25 02:45:28;;;;;;;15.05;10.50;;;0.20;99.90;;;;;;5070986;28;20107;-59
2022/03/25 02:47:54;;;;;;;16.48;11.27;;;0.20;99.90;;;;;;5070983;28;20199;-59
2022/03/25 02:50:19;;;;;;;17.52;11.48;;;0.20;99.90;;;;;;5070976;28;20082;-59
2022/03/25 02:52:45;;;;;;;18.77;12.00;;;0.10;99.90;;;;;;5070720;28;20024;-58
2022/03/25 02:55:12;;;;;;;15.45;11.00;;;0.10;99.90;;;;;;5071115;28;20028;-59
2022/03/25 02:57:38;;;;;;;18.90;11.25;;;0.00;99.90;;;;;;5069144;28;20029;-58
2022/03/25 03:00:09;;;;;;;21.88;10.90;;;0.00;99.90;;;;;;5070894;28;20070;-59
2022/03/25 03:02:36;;;;;;;14.48;10.60;;;0.10;99.90;;;;;;5070982;28;20021;-59
2022/03/25 03:05:02;;;;;;;19.92;12.30;;;0.10;99.90;;;;;;5070535;28;20028;-58
2022/03/25 03:07:28;;;;;;;16.50;10.98;;;0.00;99.90;;;;;;5070789;28;20020;-59
2022/03/25 03:09:54;;;;;;;16.67;11.38;;;0.00;99.90;;;;;;5070183;28;20569;-59
2022/03/25 03:12:20;;;;;;;16.42;11.45;;;0.00;99.90;;;;;;5070330;28;20021;-59
2022/03/25 03:14:47;;;;;;;17.55;10.13;;;0.10;99.90;;;;;;5069144;28;20059;-59
2022/03/25 03:17:13;;;;;;;15.98;11.23;;;0.10;99.90;;;;;;5071074;28;20024;-59
2022/03/25 03:19:39;;;;;;;15.70;10.75;;;0.20;99.90;;;;;;5070365;28;20035;-59
2022/03/25 03:22:05;;;;;;;18.42;11.00;;;0.20;99.90;;;;;;5070538;28;20043;-59
2022/03/25 03:24:31;;;;;;;14.95;11.75;;;0.20;99.90;;;;;;5072947;28;20024;-59
2022/03/25 03:26:57;;;;;;;17.98;11.35;;;0.20;99.90;;;;;;5074284;28;20591;-59
2022/03/25 03:29:24;;;;;;;17.33;11.63;;;0.10;99.90;;;;;;5075305;28;20055;-59
2022/03/25 03:31:49;;;;;;;18.05;12.52;;;0.10;99.90;;;;;;5075236;28;20067;-59
2022/03/25 03:34:15;;;;;;;18.40;11.82;;;0.00;99.90;;;;;;5075512;28;20044;-59
2022/03/25 03:36:41;;;;;;;13.75;10.30;;;0.00;99.90;;;;;;5075373;28;20036;-58
2022/03/25 03:39:07;;;;;;;16.77;12.10;;;0.00;99.90;;;;;;5075380;28;20032;-59
2022/03/25 03:41:33;;;;;;;16.83;10.15;;;0.00;99.90;;;;;;5075179;28;20161;-59
2022/03/25 03:43:59;;;;;;;14.48;10.27;;;-0.10;99.90;;;;;;5074938;28;20024;-59
2022/03/25 03:46:24;;;;;;;17.00;11.48;;;-0.10;99.90;;;;;;5075082;28;20033;-58
2022/03/25 03:48:50;;;;;;;19.50;11.48;;;-0.20;99.90;;;;;;5074523;28;20119;-59
2022/03/25 03:51:17;;;;;;;15.85;12.43;;;-0.30;99.90;;;;;;5074639;28;20025;-59
2022/03/25 03:53:43;;;;;;;17.20;11.38;;;-0.40;99.90;;;;;;5074641;28;20379;-58
2022/03/25 03:56:08;;;;;;;16.15;11.15;;;-0.40;99.90;;;;;;5074977;28;20021;-57
2022/03/25 03:58:34;;;;;;;17.00;11.65;;;-0.40;99.90;;;;;;5075270;28;20479;-58
2022/03/25 04:01:00;;;;;;;20.20;11.05;;;-0.40;99.90;;;;;;5074705;28;20040;-57
2022/03/25 04:03:26;;;;;;;18.42;10.27;;;-0.40;99.90;;;;;;5074633;28;20060;-58
2022/03/25 04:05:52;;;;;;;18.23;12.48;;;-0.30;99.90;;;;;;5074424;28;20028;-58
2022/03/25 04:08:17;;;;;;;14.93;10.52;;;-0.30;99.90;;;;;;5074473;28;20038;-59
2022/03/25 04:10:43;;;;;;;18.25;12.13;;;-0.30;99.90;;;;;;5074323;28;20376;-59
2022/03/25 04:13:09;;;;;;;15.57;10.65;;;-0.30;99.90;;;;;;5074399;28;20055;-58
2022/03/25 04:15:34;;;;;;;20.23;12.43;;;-0.40;99.90;;;;;;5073999;28;20020;-58
2022/03/25 04:18:00;;;;;;;17.15;11.48;;;-0.50;99.90;;;;;;5072114;28;20024;-58
2022/03/25 04:20:26;;;;;;;15.48;11.40;;;-0.50;99.90;;;;;;5072453;28;20028;-59
2022/03/25 04:22:52;;;;;;;15.88;11.48;;;-0.40;99.90;;;;;;5072463;28;20028;-59
2022/03/25 04:25:18;;;;;;;21.27;12.20;;;-0.40;99.90;;;;;;5071991;28;20136;-58
2022/03/25 04:27:53;;;;;;;21.90;13.80;;;-0.40;99.90;;;;;;5073271;28;20047;-58
2022/03/25 04:30:27;;;;;;;20.85;11.63;;;-0.50;99.90;;;;;;5073520;28;20463;-58
2022/03/25 04:32:54;;;;;;;29.98;11.00;;;-0.50;99.90;;;;;;5074044;28;20025;-59
2022/03/25 04:35:21;;;;;;;18.40;11.88;;;-0.60;99.90;;;;;;5073230;28;20035;-58
2022/03/25 04:37:47;;;;;;;24.10;14.27;;;-0.50;99.90;;;;;;5073887;28;20026;-58
2022/03/25 04:40:17;;;;;;;15.50;10.88;;;-0.40;99.90;;;;;;5074079;28;20016;-59
2022/03/25 04:42:51;;;;;;;15.27;10.77;;;-0.50;99.90;;;;;;5074032;28;20021;-59
2022/03/25 04:45:17;;;;;;;;;;;-0.50;99.90;;;;;;5074236;28;20043;-59
2022/03/25 04:47:43;;;;;;;24.58;12.60;;;-0.50;99.90;;;;;;5073806;28;19949;-58
2022/03/25 04:50:10;;;;;;;15.77;11.70;;;-0.50;99.90;;;;;;5073798;28;20028;-59
2022/03/25 04:52:36;;;;;;;16.65;11.57;;;-0.50;99.90;;;;;;5073754;28;20115;-59
2022/03/25 04:55:02;;;;;;;21.85;12.25;;;-0.50;99.90;;;;;;5073621;28;20187;-59
2022/03/25 04:57:28;;;;;;;17.00;12.65;;;-0.60;99.90;;;;;;5073551;28;20028;-58
2022/03/25 04:59:55;;;;;;;17.70;12.35;;;-0.70;99.90;;;;;;5073380;28;20073;-59
2022/03/25 05:02:21;;;;;;;19.17;11.32;;;-0.60;99.90;;;;;;5073691;28;20028;-58
2022/03/25 05:04:46;;;;;;;16.65;12.30;;;-0.50;99.90;;;;;;5073393;28;20029;-59
2022/03/25 05:07:16;;;;;;;21.80;12.15;;;-0.50;99.90;;;;;;5073535;28;20370;-58
2022/03/25 05:09:42;;;;;;;19.25;12.60;;;-0.40;99.90;;;;;;5073244;28;20031;-59
2022/03/25 05:12:09;;;;;;;23.13;12.85;;;-0.50;99.90;;;;;;5073437;28;20648;-59
2022/03/25 05:14:35;;;;;;;29.23;12.63;;;-0.50;99.90;;;;;;5073245;28;20040;-58
2022/03/25 05:17:00;;;;;;;22.98;12.88;;;-0.60;99.90;;;;;;5071683;28;20524;-58
2022/03/25 05:19:27;;;;;;;18.00;11.40;;;-0.60;99.90;;;;;;5073369;28;20484;-59
2022/03/25 05:21:53;;;;;;;15.65;12.40;;;-0.50;99.90;;;;;;5072981;28;20020;-59
2022/03/25 05:24:19;;;;;;;20.40;13.23;;;-0.50;99.90;;;;;;5071896;28;20025;-59
2022/03/25 05:26:44;;;;;;;17.10;12.07;;;-0.50;99.90;;;;;;5073047;28;20033;-58
2022/03/25 05:29:10;;;;;;;17.73;12.15;;;-0.50;99.90;;;;;;5071712;28;20037;-58
2022/03/25 05:31:37;;;;;;;22.13;13.50;;;-0.40;99.90;;;;;;5073036;28;20077;-59
2022/03/25 05:34:06;;;;;;;20.48;12.35;;;-0.40;99.90;;;;;;5071433;28;20058;-59
2022/03/25 05:36:34;;;;;;;20.60;12.40;;;-0.40;99.90;;;;;;5073052;28;20086;-59
2022/03/25 05:39:01;;;;;;;17.30;12.43;;;-0.30;99.90;;;;;;5072733;28;20435;-58
2022/03/25 05:41:28;;;;;;;20.10;13.00;;;-0.30;99.90;;;;;;5072939;28;20088;-59
2022/03/25 05:43:55;;;;;;;25.35;13.73;;;-0.20;99.90;;;;;;5072569;28;20028;-59
2022/03/25 05:46:21;;;;;;;21.08;12.88;;;-0.10;99.90;;;;;;5072919;28;20040;-59
2022/03/25 05:48:46;;;;;;;30.17;18.05;;;0.00;99.90;;;;;;5072340;28;20033;-59
2022/03/25 05:51:13;;;;;;;43.08;25.88;;;0.10;99.90;;;;;;5072780;28;20508;-59
2022/03/25 05:53:42;;;;;;;57.80;30.17;;;0.30;99.90;;;;;;5072596;28;20028;-59
2022/03/25 05:56:09;;;;;;;41.50;20.05;;;0.30;99.90;;;;;;5072364;28;20038;-59
2022/03/25 05:58:36;;;;;;;49.45;25.95;;;0.30;99.90;;;;;;5072309;28;20016;-59
2022/03/25 06:01:03;;;;;;;80.47;40.90;;;0.40;99.90;;;;;;5070838;28;20560;-59
2022/03/25 06:03:30;;;;;;;58.50;35.20;;;0.50;99.90;;;;;;5072172;28;20028;-59
2022/03/25 06:05:56;;;;;;;32.60;20.90;;;0.60;99.90;;;;;;5072276;28;20027;-59
2022/03/25 06:08:23;;;;;;;28.42;17.58;;;0.80;99.90;;;;;;5072229;28;20013;-61
2022/03/25 06:10:50;;;;;;;22.65;16.25;;;0.90;99.90;;;;;;5071188;28;20024;-60
2022/03/25 06:13:16;;;;;;;30.65;20.52;;;0.90;99.90;;;;;;5071171;28;20041;-59
2022/03/25 06:15:42;;;;;;;41.55;23.30;;;0.90;99.90;;;;;;5071759;28;20029;-59
2022/03/25 06:18:08;;;;;;;42.40;26.55;;;1.00;99.90;;;;;;5071287;28;20025;-57
2022/03/25 06:20:34;;;;;;;58.88;27.88;;;1.20;99.90;;;;;;5070976;28;20027;-58
2022/03/25 06:23:00;;;;;;;45.85;28.33;;;1.40;99.90;;;;;;5070670;28;20028;-59
2022/03/25 06:25:26;;;;;;;39.13;25.23;;;1.60;99.90;;;;;;5070735;28;20509;-59
2022/03/25 06:28:01;;;;;;;39.75;24.10;;;1.70;99.90;;;;;;5071349;28;20056;-59
2022/03/25 06:30:34;;;;;;;30.73;22.45;;;1.90;99.90;;;;;;5071314;28;20036;-59
2022/03/25 06:33:04;;;;;;;37.38;27.85;;;2.10;99.90;;;;;;5070848;28;20096;-59
2022/03/25 06:35:29;;;;;;;28.40;18.42;;;2.20;99.90;;;;;;5070847;28;20025;-61
2022/03/25 06:37:56;;;;;;;24.55;16.85;;;2.30;99.90;;;;;;5070343;28;20043;-59
2022/03/25 06:40:22;;;;;;;23.15;16.30;;;2.50;99.90;;;;;;5070176;28;20033;-59
2022/03/25 06:42:49;;;;;;;31.42;17.13;;;2.60;99.90;;;;;;5060062;28;20037;-59
2022/03/25 06:45:16;;;;;;;27.50;18.25;;;2.80;99.90;;;;;;5060413;28;20034;-59
2022/03/25 06:47:43;;;;;;;33.67;24.08;;;3.00;99.90;;;;;;5061232;28;20032;-59
2022/03/25 06:50:10;;;;;;;28.95;21.98;;;3.20;99.90;;;;;;5058522;28;20017;-59
2022/03/25 06:52:37;;;;;;;44.03;24.27;;;3.40;99.90;;;;;;5060611;28;20380;-59
2022/03/25 06:55:03;;;;;;;47.42;24.70;;;3.40;99.90;;;;;;5061788;28;20108;-59
2022/03/25 06:57:30;;;;;;;35.35;21.50;;;3.50;99.90;;;;;;5059640;28;20009;-59
2022/03/25 06:59:56;;;;;;;35.75;21.38;;;3.60;99.90;;;;;;5058893;28;20021;-59
2022/03/25 07:02:22;;;;;;;42.65;21.70;;;3.80;99.90;;;;;;5051470;28;20036;-59
2022/03/25 07:04:47;;;;;;;30.67;20.70;;;4.00;99.90;;;;;;5051329;28;20405;-59
2022/03/25 07:07:18;;;;;;;28.13;18.38;;;4.20;99.90;;;;;;5054143;28;20064;-59
2022/03/25 07:09:43;;;;;;;29.00;18.38;;;4.50;99.90;;;;;;5053851;28;20044;-59
2022/03/25 07:12:10;;;;;;;27.73;17.27;;;4.60;99.90;;;;;;5053617;28;20025;-59
2022/03/25 07:14:36;;;;;;;27.08;17.65;;;4.80;99.90;;;;;;5051294;28;20041;-59
2022/03/25 07:17:02;;;;;;;28.23;17.52;;;4.90;99.90;;;;;;5049954;28;20033;-59
2022/03/25 07:19:27;;;;;;;23.88;17.00;;;5.10;99.90;;;;;;5051369;28;20032;-59
2022/03/25 07:21:53;;;;;;;25.17;19.05;;;5.30;99.90;;;;;;5051135;28;20071;-59
2022/03/25 07:24:20;;;;;;;25.73;17.17;;;5.50;99.90;;;;;;5051343;28;20085;-59
2022/03/25 07:26:46;;;;;;;23.88;17.05;;;5.70;99.90;;;;;;5051200;28;20108;-59
2022/03/25 07:29:11;;;;;;;22.13;16.55;;;6.00;99.90;;;;;;5051302;28;20120;-59
2022/03/25 07:31:37;;;;;;;23.50;16.77;;;6.20;99.90;;;;;;5050034;28;20660;-58
2022/03/25 07:34:03;;;;;;;26.58;16.88;;;6.30;99.90;;;;;;5051248;28;20017;-59
2022/03/25 07:36:29;;;;;;;22.70;16.63;;;6.40;99.70;;;;;;5051171;28;20033;-59
2022/03/25 07:38:55;;;;;;;21.10;14.27;;;6.60;99.00;;;;;;5050797;28;20035;-59
2022/03/25 07:41:21;;;;;;;22.17;15.38;;;6.90;98.10;;;;;;5051179;28;20567;-59
2022/03/25 07:43:47;;;;;;;22.90;14.13;;;7.10;98.00;;;;;;5051144;28;20435;-59
2022/03/25 07:46:12;;;;;;;17.33;12.82;;;7.40;96.30;;;;;;5051203;28;20032;-59
2022/03/25 07:48:38;;;;;;;20.77;12.60;;;7.60;95.40;;;;;;5051172;28;20477;-59
2022/03/25 07:51:04;;;;;;;26.08;14.30;;;7.80;94.90;;;;;;5051102;28;20039;-59
2022/03/25 07:53:32;;;;;;;30.88;15.93;;;7.90;95.00;;;;;;5051073;28;20032;-59
2022/03/25 07:55:58;;;;;;;22.48;15.27;;;8.10;94.30;;;;;;5051103;28;20025;-59
2022/03/25 07:58:24;;;;;;;27.77;15.60;;;8.40;93.20;;;;;;5050750;28;20111;-60
2022/03/25 08:00:51;;;;;;;21.33;14.93;;;8.60;92.40;;;;;;5050144;28;20064;-59
2022/03/25 08:03:18;;;;;;;28.75;16.23;;;8.70;91.60;;;;;;5050551;28;20496;-60
2022/03/25 08:05:47;;;;;;;26.08;16.25;;;8.90;91.40;;;;;;5050866;28;20083;-59
2022/03/25 08:08:13;;;;;;;20.23;13.80;;;9.20;91.30;;;;;;5050922;28;20028;-59
2022/03/25 08:10:39;;;;;;;26.33;15.77;;;9.40;91.30;;;;;;5052786;28;20033;-59
2022/03/25 08:13:05;;;;;;;20.75;14.50;;;9.50;91.60;;;;;;5054584;28;20504;-59
2022/03/25 08:15:32;;;;;;;20.10;14.77;;;9.70;92.10;;;;;;5054756;28;20068;-59
2022/03/25 08:17:58;;;;;;;19.92;14.88;;;9.90;92.90;;;;;;5054623;28;20045;-59
2022/03/25 08:20:37;;;;;;;26.83;14.20;;;10.20;93.50;;;;;;5054584;28;20033;-59
2022/03/25 08:23:04;;;;;;;20.95;14.20;;;10.40;90.80;;;;;;5054436;28;20036;-59
2022/03/25 08:28:16;;;;;;;18.50;13.25;;;10.60;86.80;;;;;;5054793;28;20091;-59
2022/03/25 08:30:42;;;;;;;23.85;13.15;;;10.90;83.80;;;;;;5054213;28;20071;-59
2022/03/25 08:33:09;;;;;;;20.98;13.40;;;10.80;85.30;;;;;;5063264;28;20048;-60
2022/03/25 08:35:36;;;;;;;18.90;12.68;;;10.90;83.90;;;;;;5074370;28;20023;-60
2022/03/25 08:38:03;;;;;;;18.13;13.32;;;11.00;83.10;;;;;;5074123;28;20025;-58
2022/03/25 08:40:30;;;;;;;19.80;13.88;;;11.20;84.00;;;;;;5070991;28;20024;-60
2022/03/25 08:42:56;;;;;;;20.02;13.30;;;11.40;80.80;;;;;;5067743;28;20036;-60
2022/03/25 08:45:22;;;;;;;25.13;13.77;;;11.50;81.80;;;;;;5065092;28;20048;-60
2022/03/25 08:47:48;;;;;;;17.52;13.43;;;11.50;76.50;;;;;;5027852;28;20028;-60
2022/03/25 08:50:16;;;;;;;25.02;14.77;;;11.40;77.30;;;;;;5044360;28;20040;-60
2022/03/25 08:52:46;;;;;;;21.27;13.35;;;11.60;79.80;;;;;;5044442;28;20108;-60
2022/03/25 08:55:13;;;;;;;18.73;13.15;;;11.80;74.70;;;;;;5044542;28;20037;-60
2022/03/25 08:57:39;;;;;;;26.08;12.07;;;11.80;71.40;;;;;;5044551;28;20334;-60
2022/03/25 09:00:11;;;;;;;31.27;14.18;;;12.00;72.10;;;;;;5044092;28;20094;-60
2022/03/25 09:02:43;;;;;;;24.60;13.75;;;12.10;70.30;;;;;;5064369;28;20371;-60
2022/03/25 09:05:10;;;;;;;22.80;13.27;;;12.40;72.30;;;;;;5064557;28;20040;-60
2022/03/25 09:07:37;;;;;;;21.67;13.63;;;12.50;68.50;;;;;;5063746;28;20067;-60
2022/03/25 09:10:06;;;;;;;21.13;12.98;;;12.70;69.90;;;;;;5063131;28;20029;-60
2022/03/25 09:12:33;;;;;;;23.73;13.43;;;12.90;63.70;;;;;;5063066;28;20060;-60
2022/03/25 09:14:59;;;;;;;26.23;13.95;;;13.00;64.70;;;;;;5062822;28;20125;-60
2022/03/25 09:17:25;;;;;;;20.73;12.52;;;13.00;65.10;;;;;;5052264;28;20029;-60
2022/03/25 09:19:51;;;;;;;20.88;13.60;;;13.30;63.40;;;;;;5053248;28;20032;-60
2022/03/25 09:22:17;;;;;;;21.23;13.68;;;13.40;63.20;;;;;;5053061;28;20060;-60
2022/03/25 09:24:43;;;;;;;20.95;12.85;;;13.60;60.40;;;;;;5053087;28;20036;-60
2022/03/25 09:27:08;;;;;;;25.13;12.48;;;13.80;56.30;;;;;;5052005;28;20036;-60
2022/03/25 09:29:34;;;;;;;29.00;12.90;;;13.90;58.30;;;;;;5053410;28;20025;-60
2022/03/25 09:32:00;;;;;;;36.28;22.00;;;14.00;57.00;;;;;;5053180;28;20025;-60
2022/03/25 09:37:09;;;;;;;;;;;14.30;58.50;;;;;;5053774;28;20036;-60
2022/03/25 09:39:35;;;;;;;18.08;14.07;;;14.50;55.70;;;;;;5053216;28;20356;-60
2022/03/25 09:42:03;;;;;;;28.30;14.68;;;14.50;57.00;;;;;;5053017;28;20477;-60
2022/03/25 09:44:30;;;;;;;18.13;13.70;;;14.70;57.30;;;;;;5053140;28;20494;-60
2022/03/25 09:46:56;;;;;;;24.67;15.73;;;14.90;56.30;;;;;;5052327;28;20120;-60
2022/03/25 09:49:21;;;;;;;24.33;14.40;;;15.10;55.00;;;;;;5052118;28;20570;-60
2022/03/25 09:51:47;;;;;;;20.80;13.45;;;15.40;56.20;;;;;;5052473;28;20029;-60
2022/03/25 09:54:14;;;;;;;22.38;13.40;;;15.40;54.80;;;;;;5052832;28;20009;-60
2022/03/25 09:56:41;;;;;;;33.65;13.75;;;15.20;55.50;;;;;;5052788;28;20021;-60
2022/03/25 09:59:07;;;;;;;15.25;12.57;;;15.30;54.90;;;;;;5052790;28;20486;-60
2022/03/25 10:01:34;;;;;;;21.10;12.90;;;15.60;57.00;;;;;;5051426;28;20033;-60
2022/03/25 10:03:59;;;;;;;16.80;12.00;;;15.80;56.30;;;;;;5052540;28;20099;-60
2022/03/25 10:06:25;;;;;;;21.20;13.85;;;16.10;54.80;;;;;;5059702;28;20103;-60
2022/03/25 10:08:56;;;;;;;21.88;12.20;;;16.30;52.20;;;;;;5061029;28;20033;-60
2022/03/25 10:11:30;;;;;;;23.20;11.55;;;16.20;52.00;;;;;;5061584;28;20017;-60
2022/03/25 10:14:22;;;;;;;21.00;12.98;;;16.40;51.80;;;;;;5060749;28;20127;-60
2022/03/25 10:16:53;;;;;;;18.38;12.82;;;16.40;51.80;;;;;;5061634;28;20028;-60
2022/03/25 10:19:21;;;;;;;19.77;15.13;;;16.60;52.00;;;;;;5063870;28;20029;-60
2022/03/25 10:22:02;;;;;;;17.92;13.35;;;16.80;51.40;;;;;;5047099;28;20082;-60
2022/03/25 10:24:48;;;;;;;19.42;15.35;;;17.30;50.80;;;;;;5031722;28;20083;-60
2022/03/25 10:27:17;;;;;;;28.45;17.95;;;17.30;49.10;;;;;;5037913;28;20036;-61
2022/03/25 10:29:45;;;;;;;20.95;14.73;;;17.30;47.90;;;;;;5037794;28;20036;-60
2022/03/25 10:32:29;;;;;;;60.63;29.85;;;17.20;46.90;;;;;;5036821;28;20155;-60
2022/03/25 10:35:03;;;;;;;26.02;14.88;;;17.20;48.90;;;;;;5037664;28;22260;-60
2022/03/25 10:37:29;;;;;;;22.58;14.02;;;17.30;48.20;;;;;;5037780;28;20127;-60
2022/03/25 10:39:54;;;;;;;32.50;15.27;;;17.70;49.30;;;;;;5036707;28;22729;-60
2022/03/25 10:42:20;;;;;;;25.50;13.77;;;17.80;48.70;;;;;;5035615;28;20029;-60
2022/03/25 10:44:46;;;;;;;18.35;14.27;;;18.00;47.70;;;;;;5034308;28;20438;-60
2022/03/25 10:47:15;;;;;;;23.95;13.30;;;18.10;47.20;;;;;;5041245;28;20049;-60
2022/03/25 10:49:46;;;;;;;28.25;14.35;;;18.20;46.90;;;;;;5041473;28;20037;-60
2022/03/25 10:52:34;;;;;;;34.63;14.90;;;18.30;46.20;;;;;;5040989;28;20063;-61
2022/03/25 10:55:22;;;;;;;22.75;15.23;;;18.50;45.30;;;;;;5045120;28;20325;-60
2022/03/25 10:57:53;;;;;;;27.60;15.32;;;18.60;44.80;;;;;;5045860;28;20044;-61
2022/03/25 11:00:20;;;;;;;27.30;16.65;;;18.80;42.60;;;;;;5040922;28;20086;-61
2022/03/25 11:02:46;;;;;;;35.05;17.05;;;19.10;42.70;;;;;;5040681;28;20029;-60
2022/03/25 11:05:13;;;;;;;29.50;18.00;;;19.60;41.30;;;;;;5040962;28;20082;-60
2022/03/25 11:07:43;;;;;;;28.80;18.20;;;20.10;38.40;;;;;;5040699;28;20035;-60
2022/03/25 11:10:12;;;;;;;21.15;16.23;;;21.60;39.10;;;;;;5041375;28;20338;-61
2022/03/25 11:12:41;;;;;;;24.25;17.13;;;22.70;36.50;;;;;;5039617;28;20069;-60
2022/03/25 11:15:10;;;;;;;25.00;16.95;;;23.00;35.60;;;;;;5042072;28;20076;-60
2022/03/25 11:17:37;;;;;;;27.30;18.83;;;22.40;35.10;;;;;;5040303;28;20373;-61
2022/03/25 11:20:05;;;;;;;28.00;16.85;;;22.40;34.20;;;;;;5042465;28;20728;-61
2022/03/25 11:22:32;;;;;;;26.90;18.55;;;23.10;35.80;;;;;;5050561;28;20036;-61
2022/03/25 11:25:02;;;;;;;25.73;18.55;;;23.20;33.10;;;;;;5054611;28;20078;-60
2022/03/25 11:27:32;;;;;;;24.67;17.02;;;23.40;33.50;;;;;;5059241;28;20103;-61
2022/03/25 11:30:03;;;;;;;25.75;18.05;;;23.70;34.30;;;;;;5051109;28;20167;-61
2022/03/25 11:32:29;;;;;;;31.65;17.60;;;24.90;33.60;;;;;;5049774;28;20025;-61
2022/03/25 11:34:54;;;;;;;30.60;17.48;;;24.80;31.40;;;;;;5051296;28;20028;-62
2022/03/25 11:37:27;;;;;;;32.80;19.48;;;25.80;32.10;;;;;;5050439;28;20357;-61
2022/03/25 11:40:25;;;;;;;30.85;18.63;;;26.00;30.60;;;;;;5050626;28;20024;-61
2022/03/25 11:43:27;;;;;;;35.95;19.20;;;25.60;30.00;;;;;;5033435;28;20021;-62
2022/03/25 11:46:09;;;;;;;24.10;17.75;;;25.60;30.30;;;;;;5046786;28;20020;-61
2022/03/25 11:48:40;;;;;;;26.02;19.15;;;25.40;29.50;;;;;;5054712;28;20020;-61
2022/03/25 11:51:29;;;;;;;31.52;19.27;;;25.30;30.00;;;;;;5054991;28;20056;-61
2022/03/25 11:53:55;;;;;;;35.58;18.35;;;24.80;30.00;;;;;;5054682;28;20025;-61
2022/03/25 11:56:21;;;;;;;33.53;19.05;;;25.10;29.80;;;;;;5055046;28;20043;-61
2022/03/25 11:58:56;;;;;;;34.40;20.88;;;25.20;29.80;;;;;;5054791;28;20028;-61
2022/03/25 12:01:22;;;;;;;30.80;20.13;;;25.40;29.60;;;;;;5054583;28;20524;-61
2022/03/25 12:03:52;;;;;;;34.45;19.50;;;25.90;29.80;;;;;;5054613;28;20112;-61
2022/03/25 12:06:19;;;;;;;30.67;21.13;;;26.60;29.40;;;;;;5054967;28;20021;-61
2022/03/25 12:08:59;;;;;;;24.65;19.98;;;26.20;29.20;;;;;;5052150;28;20337;-59
2022/03/25 12:11:51;;;;;;;28.98;20.65;;;26.00;29.10;;;;;;5054049;28;20017;-59
2022/03/25 12:14:31;;;;;;;28.13;20.88;;;25.90;29.00;;;;;;5054279;28;20045;-59
2022/03/25 12:17:04;;;;;;;27.80;21.70;;;25.80;28.20;;;;;;5054371;28;20404;-59
2022/03/25 12:19:29;;;;;;;;;;;26.30;28.30;;;;;;5055111;28;20049;-59
2022/03/25 12:21:56;;;;;;;28.08;19.63;;;26.00;28.50;;;;;;5054511;28;19927;-60
2022/03/25 12:24:24;;;;;;;28.10;20.40;;;26.30;28.30;;;;;;5053600;28;20435;-60
2022/03/25 12:27:00;;;;;;;27.63;21.88;;;26.50;28.90;;;;;;5053812;28;20036;-60
2022/03/25 12:29:30;;;;;;;30.95;20.13;;;27.00;28.60;;;;;;5054117;28;20029;-60
2022/03/25 12:31:56;;;;;;;25.63;20.88;;;27.30;28.10;;;;;;5054091;28;20118;-60
2022/03/25 12:34:40;;;;;;;25.27;20.25;;;27.40;27.60;;;;;;5053752;28;20520;-60
2022/03/25 12:37:10;;;;;;;24.05;18.67;;;27.60;27.70;;;;;;5053767;28;20533;-60
2022/03/25 12:39:36;;;;;;;28.00;19.73;;;27.10;26.80;;;;;;5053619;28;20043;-60
2022/03/25 12:42:11;;;;;;;25.30;18.55;;;28.30;27.40;;;;;;5054000;28;20021;-60